Time;durP1;ratioP1;P1;durP2;ratioP2;P2;SDS_P1;SDS_P2;PMS_P1;PMS_P2;Temp;Humidity;BMP_temperature;BMP_pressure;BME280_temperature;BME280_humidity;BME280_pressure;Samples;Min_cycle;Max_cycle;Signal;HPM_P1;HPM_P2
2023/08/05 00:00:54;;;;;;;7.10;6.60;;;;;;;27.69;43.03;94331.97;5117298;28;20191;-68
2023/08/05 00:03:22;;;;;;;6.88;6.28;;;;;;;27.65;43.15;94322.88;5117399;28;20184;-68
2023/08/05 00:05:50;;;;;;;6.93;6.40;;;;;;;27.63;43.12;94321.78;5116447;28;20577;-68
2023/08/05 00:08:18;;;;;;;7.35;6.75;;;;;;;27.57;43.69;94316.81;5117328;28;20187;-68
2023/08/05 00:10:45;;;;;;;6.72;6.13;;;;;;;27.55;43.45;94310.81;5116911;28;20225;-68
2023/08/05 00:13:14;;;;;;;7.57;6.97;;;;;;;27.55;43.16;94305.16;5116146;28;20203;-69
2023/08/05 00:15:46;;;;;;;7.15;6.55;;;;;;;27.52;43.30;94299.69;5116778;28;20204;-69
2023/08/05 00:18:13;;;;;;;6.80;6.30;;;;;;;27.49;43.48;94295.78;5117035;28;20270;-69
2023/08/05 00:20:47;;;;;;;7.38;6.78;;;;;;;27.48;44.08;94299.84;5115360;28;20214;-69
2023/08/05 00:23:14;;;;;;;7.15;6.45;;;;;;;27.44;44.19;94298.47;5116045;28;20200;-69
2023/08/05 00:25:44;;;;;;;7.07;6.43;;;;;;;27.42;43.83;94293.31;5115350;28;20227;-69
2023/08/05 00:28:18;;;;;;;7.10;6.50;;;;;;;27.43;43.73;94296.91;5116351;28;20199;-69
2023/08/05 00:30:46;;;;;;;7.00;6.47;;;;;;;27.46;44.08;94295.97;5115734;28;20206;-69
2023/08/05 00:33:14;;;;;;;6.97;6.35;;;;;;;27.41;43.58;94297.38;5116539;28;20203;-69
2023/08/05 00:35:42;;;;;;;7.63;6.88;;;;;;;27.36;43.51;94300.88;5115539;28;20219;-70
2023/08/05 00:38:13;;;;;;;7.47;6.78;;;;;;;27.31;43.77;94299.50;5116558;28;20198;-70
2023/08/05 00:40:44;;;;;;;6.50;5.85;;;;;;;27.27;43.73;94293.25;5115713;28;20195;-70
2023/08/05 00:43:11;;;;;;;7.07;6.47;;;;;;;27.22;44.02;94293.09;5116394;28;20206;-70
2023/08/05 00:45:46;;;;;;;6.45;5.97;;;;;;;27.18;44.89;94284.00;5116323;27;20203;-69
2023/08/05 00:48:22;;;;;;;6.57;6.07;;;;;;;27.16;44.04;94287.31;5116882;28;20253;-69
2023/08/05 00:50:52;;;;;;;6.45;5.95;;;;;;;27.15;44.07;94284.97;5115352;28;20195;-69
2023/08/05 00:53:23;;;;;;;6.72;6.13;;;;;;;27.09;44.14;94277.13;5116190;28;20191;-69
2023/08/05 00:55:52;;;;;;;7.18;6.57;;;;;;;27.04;44.31;94285.47;5115321;28;20268;-69
2023/08/05 00:58:21;;;;;;;6.85;6.32;;;;;;;26.99;44.46;94281.25;5116200;28;20206;-70
2023/08/05 01:00:53;;;;;;;6.93;6.32;;;;;;;26.97;44.45;94280.16;5115312;28;20615;-69
2023/08/05 01:03:23;;;;;;;6.75;6.25;;;;;;;26.88;44.45;94278.16;5115382;28;20242;-69
2023/08/05 01:05:51;;;;;;;7.53;6.80;;;;;;;26.88;44.67;94278.94;5115821;28;20199;-70
2023/08/05 01:08:24;;;;;;;6.45;6.05;;;;;;;26.86;44.75;94270.13;5116046;28;20188;-70
2023/08/05 01:10:55;;;;;;;7.07;6.47;;;;;;;26.86;44.68;94272.19;5115112;28;20237;-70
2023/08/05 01:13:22;;;;;;;7.68;6.90;;;;;;;26.83;44.76;94273.13;5115037;28;20195;-70
2023/08/05 01:15:53;;;;;;;7.10;6.43;;;;;;;26.78;44.93;94274.59;5115421;28;20215;-70
2023/08/05 01:18:23;;;;;;;7.32;6.68;;;;;;;26.73;45.16;94269.59;5115037;28;20195;-69
2023/08/05 01:20:56;;;;;;;7.07;6.47;;;;;;;26.71;45.29;94265.66;5115280;28;20196;-69
2023/08/05 01:23:37;;;;;;;6.90;6.32;;;;;;;26.70;45.06;94258.44;5114757;28;20200;-69
2023/08/05 01:26:07;;;;;;;6.72;6.13;;;;;;;26.67;45.23;94263.00;5114690;28;20299;-69
2023/08/05 01:28:38;;;;;;;6.97;6.40;;;;;;;26.65;45.25;94257.03;5115650;28;20180;-69
2023/08/05 01:31:10;;;;;;;7.80;7.00;;;;;;;26.59;45.42;94245.59;5115000;28;20187;-69
2023/08/05 01:33:38;;;;;;;7.18;6.68;;;;;;;26.61;45.45;94254.38;5114419;28;20203;-69
2023/08/05 01:36:08;;;;;;;7.50;6.78;;;;;;;26.59;45.47;94251.25;5114523;28;20240;-69
2023/08/05 01:38:38;;;;;;;6.75;6.28;;;;;;;26.57;45.45;94261.47;5114503;28;20204;-69
2023/08/05 01:41:07;;;;;;;7.60;7.00;;;;;;;26.56;45.49;94259.91;5115456;28;20529;-69
2023/08/05 01:43:37;;;;;;;7.25;6.68;;;;;;;26.59;45.46;94251.25;5115560;28;20184;-69
2023/08/05 01:46:07;;;;;;;6.72;6.22;;;;;;;26.55;45.50;94255.53;5114550;28;20206;-69
2023/08/05 01:48:37;;;;;;;7.90;7.38;;;;;;;26.50;45.63;94259.75;5115573;28;20191;-69
2023/08/05 01:51:07;;;;;;;7.07;6.57;;;;;;;26.46;45.59;94253.50;5115651;28;20199;-69
2023/08/05 01:53:37;;;;;;;7.18;6.60;;;;;;;26.44;45.73;94261.66;5114339;28;20231;-69
2023/08/05 01:56:07;;;;;;;7.05;6.45;;;;;;;26.44;45.70;94270.13;5114393;28;20761;-69
2023/08/05 01:58:37;;;;;;;7.15;6.55;;;;;;;26.40;45.74;94269.53;5115242;28;20612;-69
2023/08/05 02:01:05;;;;;;;6.95;6.35;;;;;;;26.39;45.81;94265.09;5114654;28;20218;-69
2023/08/05 02:03:33;;;;;;;6.40;5.90;;;;;;;26.37;45.74;94259.16;5115448;28;20202;-69
2023/08/05 02:06:01;;;;;;;7.35;6.65;;;;;;;26.34;46.14;94258.06;5114152;28;20188;-69
2023/08/05 02:08:32;;;;;;;6.95;6.40;;;;;;;26.33;46.12;94253.69;5114464;28;20626;-69
2023/08/05 02:11:02;;;;;;;7.47;6.72;;;;;;;26.31;45.92;94247.69;5114676;28;20232;-69
2023/08/05 02:13:32;;;;;;;7.30;6.70;;;;;;;26.29;46.11;94247.41;5116577;28;20583;-69
2023/08/05 02:16:04;;;;;;;6.50;5.97;;;;;;;26.26;46.23;94248.34;5118628;28;20219;-69
2023/08/05 02:18:31;;;;;;;6.97;6.40;;;;;;;26.23;45.98;94254.16;5118828;28;20203;-69
2023/08/05 02:21:02;;;;;;;7.25;6.65;;;;;;;26.20;46.20;94257.94;5119366;28;20211;-68
2023/08/05 02:23:32;;;;;;;7.38;6.88;;;;;;;26.17;46.39;94265.31;5118380;28;20203;-68
2023/08/05 02:26:02;;;;;;;7.05;6.55;;;;;;;26.15;46.38;94259.38;5117683;28;20227;-68
2023/08/05 02:28:33;;;;;;;6.72;6.22;;;;;;;26.11;46.35;94259.53;5119154;28;20188;-68
2023/08/05 02:31:04;;;;;;;7.10;6.45;;;;;;;26.08;46.37;94268.97;5118743;28;20180;-68
2023/08/05 02:33:32;;;;;;;6.97;6.32;;;;;;;26.06;46.49;94265.03;5119369;28;20603;-69
2023/08/05 02:36:01;;;;;;;8.45;6.30;;;;;;;26.05;46.76;94255.78;5118791;28;20276;-68
2023/08/05 02:38:33;;;;;;;7.10;6.60;;;;;;;26.02;46.63;94259.53;5119079;28;20198;-68
2023/08/05 02:41:03;;;;;;;6.90;6.28;;;;;;;26.01;46.49;94262.84;5117960;28;20209;-68
2023/08/05 02:43:33;;;;;;;6.82;6.13;;;;;;;26.00;46.82;94262.06;5118680;28;20199;-68
2023/08/05 02:46:04;;;;;;;6.82;6.32;;;;;;;25.96;46.87;94255.78;5118407;28;20213;-68
2023/08/05 02:48:32;;;;;;;7.47;6.88;;;;;;;25.91;47.28;94257.19;5118636;28;20187;-68
2023/08/05 02:50:59;;;;;;;7.50;6.80;;;;;;;25.89;47.54;94248.44;5117716;28;20191;-69
2023/08/05 02:53:26;;;;;;;6.82;6.28;;;;;;;25.86;47.39;94262.72;5118440;28;20626;-69
2023/08/05 02:55:54;;;;;;;7.35;6.72;;;;;;;25.83;47.78;94260.81;5118274;28;20216;-70
2023/08/05 02:58:23;;;;;;;7.80;6.68;;;;;;;25.83;47.77;94258.00;5115935;28;20203;-69
2023/08/05 03:00:54;;;;;;;7.35;6.75;;;;;;;25.81;47.73;94257.69;5118161;28;20275;-69
2023/08/05 03:03:24;;;;;;;7.00;6.50;;;;;;;25.76;47.92;94247.78;5118299;28;20579;-70
2023/08/05 03:05:52;;;;;;;8.05;7.35;;;;;;;25.67;48.32;94248.56;5118622;28;20652;-69
2023/08/05 03:08:21;;;;;;;8.25;7.55;;;;;;;25.59;48.32;94243.69;5118477;28;20191;-69
2023/08/05 03:10:57;;;;;;;8.80;8.00;;;;;;;25.52;48.52;94249.66;5118333;28;20275;-70
2023/08/05 03:13:26;;;;;;;8.55;7.85;;;;;;;25.42;49.14;94251.69;5118311;28;20225;-69
2023/08/05 03:15:54;;;;;;;9.07;8.38;;;;;;;25.32;49.33;94253.72;5116951;28;20212;-69
2023/08/05 03:18:28;;;;;;;8.75;7.90;;;;;;;25.27;49.66;94257.16;5117779;28;20628;-70
2023/08/05 03:20:56;;;;;;;8.30;7.70;;;;;;;25.22;49.77;94269.06;5118170;28;20245;-70
2023/08/05 03:23:23;;;;;;;9.27;8.35;;;;;;;25.17;50.18;94269.69;5118098;28;20195;-70
2023/08/05 03:25:54;;;;;;;9.10;8.35;;;;;;;25.13;50.39;94261.38;5117241;28;20227;-70
2023/08/05 03:28:23;;;;;;;9.60;8.80;;;;;;;25.07;50.16;94262.44;5117511;28;20290;-70
2023/08/05 03:30:52;;;;;;;10.15;9.27;;;;;;;25.01;50.57;94256.59;5116649;28;20232;-71
2023/08/05 03:33:19;;;;;;;8.52;7.85;;;;;;;24.98;50.82;94255.53;5117855;28;20272;-68
2023/08/05 03:35:49;;;;;;;9.75;8.82;;;;;;;24.99;50.90;94261.94;5117396;28;20211;-68
2023/08/05 03:38:17;;;;;;;9.43;8.63;;;;;;;25.00;50.99;94260.69;5116748;28;20198;-69
2023/08/05 03:40:45;;;;;;;9.57;8.85;;;;;;;24.96;51.49;94274.94;5117747;28;20244;-69
2023/08/05 03:43:16;;;;;;;9.50;8.60;;;;;;;24.96;51.69;94274.94;5117642;28;20188;-70
2023/08/05 03:45:50;;;;;;;9.65;8.85;;;;;;;24.94;51.59;94273.81;5117620;28;20176;-69
2023/08/05 03:48:18;;;;;;;9.98;9.07;;;;;;;24.93;51.27;94266.63;5116891;28;20238;-69
2023/08/05 03:50:54;;;;;;;9.40;8.70;;;;;;;24.91;51.31;94266.28;5117451;28;20187;-69
2023/08/05 03:53:24;;;;;;;9.35;8.55;;;;;;;24.91;51.36;94264.28;5116485;28;20192;-69
2023/08/05 03:55:52;;;;;;;9.93;9.13;;;;;;;24.88;51.91;94256.75;5117897;28;20302;-69
2023/08/05 03:58:20;;;;;;;9.13;8.32;;;;;;;24.87;51.99;94252.34;5117277;28;20209;-69
2023/08/05 04:00:49;;;;;;;9.68;8.90;;;;;;;24.78;52.26;94248.72;5117193;28;20196;-68
2023/08/05 04:03:19;;;;;;;10.00;9.20;;;;;;;24.72;52.44;94245.72;5116046;28;20290;-69
2023/08/05 04:05:54;;;;;;;10.23;9.35;;;;;;;24.73;52.26;94247.31;5116125;28;20195;-69
2023/08/05 04:08:23;;;;;;;9.57;8.60;;;;;;;24.73;52.57;94242.44;5117188;28;20656;-69
2023/08/05 04:10:53;;;;;;;10.15;9.27;;;;;;;24.73;52.37;94242.44;5117013;28;20213;-69
2023/08/05 04:13:24;;;;;;;10.18;9.38;;;;;;;24.79;51.79;94256.69;5116827;28;20603;-69
2023/08/05 04:15:53;;;;;;;9.95;9.07;;;;;;;24.80;51.93;94249.84;5116029;28;20216;-69
2023/08/05 04:18:22;;;;;;;9.88;9.02;;;;;;;24.79;51.97;94253.88;5116327;28;20562;-69
2023/08/05 04:20:55;;;;;;;9.48;8.75;;;;;;;24.78;52.13;94252.31;5116611;28;20214;-69
2023/08/05 04:23:26;;;;;;;8.95;8.23;;;;;;;24.83;52.27;94260.16;5115984;28;20234;-69
2023/08/05 04:25:54;;;;;;;9.57;8.73;;;;;;;24.83;51.72;94256.56;5115792;28;20223;-69
2023/08/05 04:28:25;;;;;;;8.75;8.02;;;;;;;24.84;51.81;94252.50;5116570;28;20183;-69
2023/08/05 04:30:57;;;;;;;9.30;8.40;;;;;;;24.84;51.89;94250.47;5116290;28;20257;-69
2023/08/05 04:33:31;;;;;;;9.25;8.35;;;;;;;24.89;52.03;94249.84;5116761;28;20187;-69
2023/08/05 04:36:00;;;;;;;9.20;8.40;;;;;;;24.90;52.05;94259.09;5115685;28;20340;-69
2023/08/05 04:38:30;;;;;;;9.35;8.50;;;;;;;24.90;52.43;94267.56;5116748;28;20180;-69
2023/08/05 04:40:58;;;;;;;9.55;8.60;;;;;;;24.92;51.74;94259.41;5115624;28;20187;-69
2023/08/05 04:43:26;;;;;;;8.00;7.28;;;;;;;24.97;50.95;94253.94;5115995;28;20631;-69
2023/08/05 04:45:56;;;;;;;8.75;8.05;;;;;;;25.04;50.96;94260.53;5115382;28;20647;-69
2023/08/05 04:48:23;;;;;;;8.27;7.68;;;;;;;25.08;51.57;94256.31;5115416;28;20179;-69
2023/08/05 04:50:53;;;;;;;7.78;7.07;;;;;;;25.15;51.45;94266.53;5116328;28;20190;-69
2023/08/05 04:53:22;;;;;;;7.32;6.63;;;;;;;25.23;50.83;94267.03;5115458;28;20227;-69
2023/08/05 04:55:49;;;;;;;8.02;7.18;;;;;;;25.31;50.35;94262.63;5115205;28;20215;-69
2023/08/05 04:58:20;;;;;;;6.93;6.32;;;;;;;25.41;49.46;94270.66;5116195;28;20199;-69
2023/08/05 05:00:47;;;;;;;8.25;6.55;;;;;;;25.53;49.73;94268.97;5115089;28;20204;-69
2023/08/05 05:03:15;;;;;;;6.47;5.90;;;;;;;25.65;48.88;94270.06;5115803;28;20180;-71
2023/08/05 05:05:46;;;;;;;8.90;6.95;;;;;;;25.79;48.17;94268.69;5115223;28;20187;-68
2023/08/05 05:08:14;;;;;;;7.97;6.95;;;;;;;25.77;48.04;94271.91;5114459;28;20231;-68
2023/08/05 05:10:47;;;;;;;7.40;6.63;;;;;;;25.73;47.89;94267.69;5116138;28;20176;-68
2023/08/05 05:13:16;;;;;;;7.55;6.88;;;;;;;25.74;48.00;94270.03;5115987;28;20176;-68
2023/08/05 05:15:46;;;;;;;7.13;6.43;;;;;;;25.74;47.72;94260.78;5115829;28;20204;-68
2023/08/05 05:18:16;;;;;;;7.28;6.00;;;;;;;25.74;47.94;94257.97;5115402;28;20290;-68
2023/08/05 05:20:46;;;;;;;12.77;11.77;;;;;;;25.79;48.01;94254.56;5115989;28;20188;-68
2023/08/05 05:23:17;;;;;;;12.35;11.30;;;;;;;25.82;47.82;94257.22;5115116;28;20199;-69
2023/08/05 05:25:52;;;;;;;7.90;7.30;;;;;;;25.82;47.58;94257.22;5114516;28;20263;-69
2023/08/05 05:28:22;;;;;;;11.02;10.02;;;;;;;25.81;47.72;94263.31;5115718;28;20274;-69
2023/08/05 05:30:49;;;;;;;17.00;15.60;;;;;;;25.84;47.74;94268.81;5115752;28;20271;-69
2023/08/05 05:33:16;;;;;;;21.60;19.67;;;;;;;25.82;47.49;94262.88;5114485;28;20204;-68
2023/08/05 05:35:48;;;;;;;9.55;8.85;;;;;;;25.83;47.87;94266.47;5115289;28;20226;-69
2023/08/05 05:38:16;;;;;;;11.63;10.73;;;;;;;25.79;47.81;94265.84;5114923;28;20187;-69
2023/08/05 05:40:46;;;;;;;9.23;8.50;;;;;;;25.81;47.82;94271.78;5110981;28;20210;-69
2023/08/05 05:43:13;;;;;;;18.52;17.02;;;;;;;25.87;48.12;94267.09;5114704;28;20203;-69
2023/08/05 05:45:46;;;;;;;13.95;12.90;;;;;;;25.91;47.80;94270.53;5115222;28;20619;-69
2023/08/05 05:48:15;;;;;;;7.70;7.00;;;;;;;25.92;47.70;94266.44;5118410;28;20191;-69
2023/08/05 05:50:43;;;;;;;11.40;10.40;;;;;;;25.97;47.64;94253.75;5120169;28;20200;-69
2023/08/05 05:53:14;;;;;;;10.70;9.90;;;;;;;26.00;47.54;94255.59;5119895;28;20211;-69
2023/08/05 05:55:42;;;;;;;7.47;6.88;;;;;;;26.02;47.00;94253.88;5119618;28;20250;-69
2023/08/05 05:58:18;;;;;;;8.02;7.32;;;;;;;26.06;47.41;94246.03;5119360;28;20618;-69
2023/08/05 06:00:49;;;;;;;8.07;7.35;;;;;;;26.10;47.21;94255.13;5120005;27;20211;-69
2023/08/05 06:03:17;;;;;;;7.75;7.18;;;;;;;26.19;47.12;94250.72;5119748;28;20286;-69
2023/08/05 06:05:45;;;;;;;7.30;6.70;;;;;;;26.18;46.50;94252.75;5118367;28;20226;-69
2023/08/05 06:08:14;;;;;;;7.32;6.63;;;;;;;26.20;46.39;94255.91;5119414;28;20560;-68
2023/08/05 06:10:44;;;;;;;7.05;6.45;;;;;;;26.17;46.45;94251.19;5118149;28;20203;-72
2023/08/05 06:13:12;;;;;;;7.32;6.65;;;;;;;26.15;46.65;94251.69;5119595;28;20184;-69
2023/08/05 06:15:44;;;;;;;7.10;6.40;;;;;;;26.15;46.68;94240.38;5119014;28;20210;-68
2023/08/05 06:18:12;;;;;;;8.23;7.05;;;;;;;26.19;46.84;94236.59;5119189;28;20192;-68
2023/08/05 06:20:43;;;;;;;7.63;6.53;;;;;;;26.21;46.89;94245.38;5118332;28;20192;-68
2023/08/05 06:23:11;;;;;;;7.35;6.75;;;;;;;26.23;46.67;94231.56;5119456;28;20191;-68
2023/08/05 06:25:39;;;;;;;6.90;6.30;;;;;;;26.19;46.76;94226.06;5118568;28;20308;-68
2023/08/05 06:28:07;;;;;;;9.15;8.40;;;;;;;26.16;46.79;94216.50;5119173;28;20207;-68
2023/08/05 06:30:36;;;;;;;7.78;7.18;;;;;;;26.15;46.70;94212.13;5119607;28;20188;-68
2023/08/05 06:33:07;;;;;;;8.18;7.07;;;;;;;26.09;46.45;94214.00;5117794;28;20547;-68
2023/08/05 06:35:36;;;;;;;7.05;6.55;;;;;;;26.08;46.67;94215.28;5117923;28;20196;-68
2023/08/05 06:38:02;;;;;;;7.00;6.40;;;;;;;26.19;47.44;94206.28;5118165;28;20264;-68
2023/08/05 06:40:29;;;;;;;7.72;6.78;;;;;;;26.37;47.00;94196.97;5117806;28;20204;-69
2023/08/05 06:42:57;;;;;;;7.85;7.25;;;;;;;26.51;46.47;94190.66;5118827;28;20544;-69
2023/08/05 06:45:26;;;;;;;7.20;6.57;;;;;;;26.62;46.17;94190.13;5117791;28;20570;-69
2023/08/05 06:47:59;;;;;;;7.82;7.22;;;;;;;26.66;45.96;94187.91;5117786;28;20203;-69
2023/08/05 06:50:27;;;;;;;7.05;6.45;;;;;;;26.66;45.80;94184.31;5118676;28;20192;-68
2023/08/05 06:52:53;;;;;;;7.78;7.18;;;;;;;26.60;45.63;94181.34;5118706;28;20200;-68
2023/08/05 06:55:24;;;;;;;7.80;7.05;;;;;;;26.55;46.60;94170.69;5118591;28;20318;-68
2023/08/05 06:57:53;;;;;;;7.32;6.72;;;;;;;26.66;46.55;94175.81;5118260;28;20204;-68
2023/08/05 07:00:22;;;;;;;9.98;9.07;;;;;;;26.70;46.08;94179.25;5117474;28;20187;-69
2023/08/05 07:02:50;;;;;;;7.88;7.28;;;;;;;26.60;46.34;94159.50;5118365;28;20188;-69
2023/08/05 07:05:18;;;;;;;9.07;8.27;;;;;;;26.57;46.59;94156.84;5118554;28;20184;-69
2023/08/05 07:07:49;;;;;;;7.82;6.80;;;;;;;26.63;46.63;94169.06;5118433;28;20191;-69
2023/08/05 07:10:16;;;;;;;7.95;7.25;;;;;;;26.75;46.91;94165.22;5117336;28;20203;-69
2023/08/05 07:12:47;;;;;;;7.90;7.22;;;;;;;26.79;46.67;94165.81;5117561;28;20188;-69
2023/08/05 07:15:13;;;;;;;8.13;7.43;;;;;;;26.89;46.46;94166.56;5117185;28;20199;-69
2023/08/05 07:17:43;;;;;;;7.85;7.25;;;;;;;27.00;45.48;94166.03;5117039;28;20219;-68
2023/08/05 07:20:14;;;;;;;8.80;7.38;;;;;;;27.00;45.93;94157.53;5117731;28;20191;-68
2023/08/05 07:22:50;;;;;;;8.05;7.10;;;;;;;27.04;45.96;94161.75;5117806;28;20187;-68
2023/08/05 07:25:17;;;;;;;7.95;7.35;;;;;;;27.12;45.40;94150.88;5116881;28;20238;-69
2023/08/05 07:27:45;;;;;;;8.13;7.43;;;;;;;27.17;45.04;94150.22;5117137;28;20196;-69
2023/08/05 07:30:15;;;;;;;8.18;7.45;;;;;;;27.19;45.16;94147.66;5117952;28;20237;-69
2023/08/05 07:32:43;;;;;;;8.15;7.35;;;;;;;27.25;45.13;94147.78;5117166;28;20196;-68
2023/08/05 07:35:10;;;;;;;8.15;7.38;;;;;;;27.24;45.12;94155.50;5117085;28;20200;-68
2023/08/05 07:37:42;;;;;;;8.20;7.50;;;;;;;27.28;44.95;94147.59;5116983;28;20223;-69
2023/08/05 07:40:13;;;;;;;8.70;7.90;;;;;;;27.32;44.98;94153.84;5117751;28;20278;-68
2023/08/05 07:42:42;;;;;;;8.55;7.85;;;;;;;27.27;44.73;94131.09;5117391;28;20213;-68
2023/08/05 07:45:14;;;;;;;8.73;7.93;;;;;;;27.23;45.40;94131.28;5117803;28;20276;-68
2023/08/05 07:47:42;;;;;;;8.82;7.47;;;;;;;27.31;45.64;94129.66;5117246;28;20172;-69
2023/08/05 07:50:11;;;;;;;9.35;7.82;;;;;;;27.40;44.95;94128.00;5116717;28;20196;-73
2023/08/05 07:52:41;;;;;;;8.32;7.53;;;;;;;27.44;44.80;94132.19;5117427;28;20191;-71
2023/08/05 07:55:10;;;;;;;8.55;7.75;;;;;;;27.50;44.61;94137.97;5117603;28;20191;-71
2023/08/05 07:57:40;;;;;;;8.18;7.47;;;;;;;27.52;44.32;94135.44;5116326;28;20220;-71
2023/08/05 08:00:11;;;;;;;9.23;8.43;;;;;;;27.54;44.08;94138.56;5116615;28;20191;-69
2023/08/05 08:02:42;;;;;;;7.85;7.10;;;;;;;27.55;44.22;94135.25;5116683;28;20207;-69
2023/08/05 08:05:13;;;;;;;9.15;8.18;;;;;;;27.59;44.43;94135.81;5116519;28;20191;-70
2023/08/05 08:07:46;;;;;;;8.60;7.80;;;;;;;27.65;44.24;94127.44;5116458;28;20184;-70
2023/08/05 08:10:15;;;;;;;8.60;7.80;;;;;;;27.69;44.41;94116.69;5116344;28;20579;-68
2023/08/05 08:12:48;;;;;;;8.10;7.28;;;;;;;27.74;44.15;94129.41;5117182;28;20183;-68
2023/08/05 08:15:14;;;;;;;8.48;7.68;;;;;;;27.78;43.43;94119.47;5117121;28;20196;-68
2023/08/05 08:17:41;;;;;;;7.88;7.18;;;;;;;27.82;43.82;94122.13;5115899;28;20572;-68
2023/08/05 08:20:12;;;;;;;8.13;7.53;;;;;;;27.86;43.60;94114.19;5116560;28;20214;-68
2023/08/05 08:22:40;;;;;;;8.75;7.75;;;;;;;27.91;43.56;94112.72;5116443;28;20199;-69
2023/08/05 08:25:09;;;;;;;7.85;7.25;;;;;;;27.97;43.76;94107.94;5116238;28;20254;-68
2023/08/05 08:27:37;;;;;;;8.63;7.93;;;;;;;28.01;43.59;94114.19;5115829;28;20195;-71
2023/08/05 08:30:14;;;;;;;8.32;7.55;;;;;;;28.07;43.58;94103.75;5116476;28;20630;-71
2023/08/05 08:32:43;;;;;;;8.20;7.47;;;;;;;28.13;43.54;94106.66;5115909;28;20203;-70
2023/08/05 08:35:11;;;;;;;8.57;7.78;;;;;;;28.16;43.59;94102.84;5115980;28;20210;-69
2023/08/05 08:37:41;;;;;;;8.77;7.72;;;;;;;28.26;43.13;94110.72;5115575;28;20219;-71
2023/08/05 08:40:13;;;;;;;12.20;8.00;;;;;;;28.29;42.96;94103.31;5116340;28;20684;-70
2023/08/05 08:42:44;;;;;;;8.95;8.15;;;;;;;28.31;42.87;94103.59;5116028;28;20202;-69
2023/08/05 08:45:19;;;;;;;9.18;7.57;;;;;;;28.34;43.04;94099.00;5116738;28;20179;-70
2023/08/05 08:47:49;;;;;;;8.80;7.70;;;;;;;28.40;43.53;94097.06;5115693;28;20195;-68
2023/08/05 08:50:21;;;;;;;8.50;7.80;;;;;;;28.51;43.56;94105.72;5116701;28;20208;-70
2023/08/05 08:52:49;;;;;;;7.57;7.05;;;;;;;28.58;43.05;94101.66;5116624;28;20183;-69
2023/08/05 08:55:20;;;;;;;10.00;8.00;;;;;;;28.64;42.73;94103.31;5116723;28;20264;-69
2023/08/05 08:57:49;;;;;;;9.40;7.75;;;;;;;28.74;42.80;94103.97;5115330;28;20212;-71
2023/08/05 09:00:22;;;;;;;9.20;8.40;;;;;;;28.83;42.61;94098.16;5115678;28;20298;-70
2023/08/05 09:02:53;;;;;;;9.40;8.48;;;;;;;28.90;42.62;94092.06;5115244;28;20200;-67
2023/08/05 09:05:22;;;;;;;9.57;8.75;;;;;;;29.00;42.34;94095.56;5116415;28;20211;-72
2023/08/05 09:07:53;;;;;;;8.20;7.60;;;;;;;29.09;42.21;94091.81;5116159;28;20172;-69
2023/08/05 09:10:28;;;;;;;9.15;8.45;;;;;;;29.10;42.26;94087.69;5115397;28;20202;-68
2023/08/05 09:13:00;;;;;;;8.57;7.53;;;;;;;29.08;41.69;94081.72;5116482;28;20183;-69
2023/08/05 09:15:37;;;;;;;8.82;8.13;;;;;;;29.15;42.05;94081.28;5115228;28;20242;-69
2023/08/05 09:18:08;;;;;;;9.65;8.75;;;;;;;29.19;42.22;94088.31;5115704;28;20230;-69
2023/08/05 09:20:37;;;;;;;8.95;8.23;;;;;;;29.24;41.76;94089.66;5116027;28;20256;-68
2023/08/05 09:23:07;;;;;;;9.65;8.82;;;;;;;29.25;41.61;94083.47;5115516;28;20203;-70
2023/08/05 09:25:42;;;;;;;8.93;8.23;;;;;;;29.30;42.03;94086.88;5115710;28;20247;-70
2023/08/05 09:28:10;;;;;;;9.02;8.32;;;;;;;29.25;41.29;94086.31;5116220;28;20191;-70
2023/08/05 09:30:43;;;;;;;10.55;8.90;;;;;;;29.23;42.05;94080.38;5115130;28;20211;-70
2023/08/05 09:33:11;;;;;;;9.18;8.45;;;;;;;29.37;42.25;94073.03;5115804;28;20300;-71
2023/08/05 09:35:39;;;;;;;10.15;9.18;;;;;;;29.40;41.84;94072.03;5115062;28;20199;-69
2023/08/05 09:38:12;;;;;;;9.88;8.88;;;;;;;29.49;41.29;94065.41;5114893;28;20207;-69
2023/08/05 09:40:42;;;;;;;9.90;9.00;;;;;;;29.55;41.31;94060.56;5114552;28;20248;-69
2023/08/05 09:43:11;;;;;;;9.98;9.18;;;;;;;29.66;41.09;94063.53;5115571;28;20254;-68
2023/08/05 09:45:49;;;;;;;10.25;9.38;;;;;;;29.77;40.82;94054.31;5115726;28;20207;-68
2023/08/05 09:48:19;;;;;;;10.07;9.15;;;;;;;29.85;40.73;94046.94;5114903;28;20638;-69
2023/08/05 09:50:50;;;;;;;9.95;9.13;;;;;;;29.94;40.75;94051.63;5115510;28;20184;-68
2023/08/05 09:53:20;;;;;;;10.45;9.55;;;;;;;30.13;40.68;94057.72;5115705;28;20179;-68
2023/08/05 09:55:47;;;;;;;10.07;9.25;;;;;;;30.21;39.73;94051.13;5115688;28;20211;-69
2023/08/05 09:58:15;;;;;;;10.18;9.25;;;;;;;30.25;39.50;94052.91;5115627;28;20215;-68
2023/08/05 10:00:49;;;;;;;9.98;9.15;;;;;;;30.32;40.08;94050.41;5115864;28;20188;-68
2023/08/05 10:03:17;;;;;;;10.00;9.05;;;;;;;30.42;39.71;94057.44;5115698;28;20176;-68
2023/08/05 10:05:49;;;;;;;9.68;8.93;;;;;;;30.45;39.84;94053.56;5114673;28;20211;-68
2023/08/05 10:08:20;;;;;;;9.50;8.70;;;;;;;30.51;39.19;94047.94;5115500;28;20184;-68
2023/08/05 10:10:48;;;;;;;9.20;8.45;;;;;;;30.62;39.54;94035.84;5115572;28;20230;-68
2023/08/05 10:13:17;;;;;;;9.35;8.65;;;;;;;30.80;39.57;94040.34;5115502;28;20196;-68
2023/08/05 10:15:51;;;;;;;9.48;8.77;;;;;;;30.86;38.91;94033.38;5115325;28;20188;-68
2023/08/05 10:18:21;;;;;;;9.55;8.73;;;;;;;30.97;38.68;94046.88;5114806;28;20318;-68
2023/08/05 10:20:50;;;;;;;9.55;8.75;;;;;;;31.00;38.73;94045.09;5115427;28;20192;-68
2023/08/05 10:23:19;;;;;;;11.48;10.50;;;;;;;30.83;38.21;94045.00;5115094;28;20212;-68
2023/08/05 10:25:48;;;;;;;9.13;8.25;;;;;;;30.73;38.48;94041.59;5115030;28;20304;-68
2023/08/05 10:28:40;;;;;;;9.30;8.60;;;;;;;30.66;38.69;94036.38;5115228;28;20319;-68
2023/08/05 10:34:12;;;;;;;9.82;8.95;;;;;;;30.82;38.75;94030.00;5134169;27;20356;-67
2023/08/05 10:36:44;;;;;;;9.57;8.88;;;;;;;30.89;38.58;94031.59;5095251;28;20210;-67
2023/08/05 10:39:43;;;;;;;9.60;8.43;;;;;;;31.05;38.33;94027.25;5095559;28;20202;-68
2023/08/05 10:42:22;;;;;;;9.60;8.80;;;;;;;31.16;37.56;94024.44;5112812;28;20202;-68
2023/08/05 10:44:54;;;;;;;9.43;8.65;;;;;;;31.15;38.32;94025.72;5113074;28;20207;-68
2023/08/05 10:47:23;;;;;;;9.88;9.05;;;;;;;31.29;38.40;94019.03;5112693;28;20631;-68
2023/08/05 10:49:56;;;;;;;9.95;9.07;;;;;;;31.27;38.22;94024.47;5095017;28;20200;-67
2023/08/05 10:52:25;;;;;;;9.38;8.65;;;;;;;31.15;37.33;94017.94;5095002;28;20238;-68
2023/08/05 10:54:53;;;;;;;9.43;8.57;;;;;;;31.06;37.95;94012.50;5112920;28;20199;-68
2023/08/05 10:57:47;;;;;;;9.85;9.07;;;;;;;31.22;38.42;93998.81;5094722;28;20615;-68
2023/08/05 11:00:23;;;;;;;9.35;8.65;;;;;;;31.42;38.11;93992.94;5103943;28;20277;-68
2023/08/05 11:03:27;;;;;;;10.50;9.57;;;;;;;31.43;38.08;93997.34;5112780;28;20192;-68
2023/08/05 11:05:58;;;;;;;9.77;8.90;;;;;;;31.59;37.58;93988.03;5030626;28;20218;-68
2023/08/05 11:08:26;;;;;;;9.80;9.00;;;;;;;31.63;37.41;93988.56;5014207;28;20256;-67
2023/08/05 11:10:57;;;;;;;9.63;8.90;;;;;;;31.64;37.58;93984.41;5030323;28;20323;-67
2023/08/05 11:13:30;;;;;;;10.32;9.52;;;;;;;31.77;38.13;93986.72;5030112;28;20225;-67
2023/08/05 11:16:15;;;;;;;11.05;10.00;;;;;;;31.90;38.17;93982.63;5014068;28;20580;-67
2023/08/05 11:18:46;;;;;;;10.65;9.85;;;;;;;31.92;37.29;93975.13;5030218;28;20203;-67
2023/08/05 11:21:17;;;;;;;10.30;9.50;;;;;;;31.85;37.77;93967.81;5013637;28;20291;-68
2023/08/05 11:23:48;;;;;;;11.02;10.13;;;;;;;31.91;38.20;93967.84;5013348;28;20284;-68
2023/08/05 11:26:16;;;;;;;10.18;9.27;;;;;;;32.00;37.72;93970.44;5013697;28;20198;-68
2023/08/05 11:28:45;;;;;;;10.13;9.32;;;;;;;31.98;37.44;93975.88;5029488;28;20305;-68
2023/08/05 11:31:22;;;;;;;10.15;9.30;;;;;;;31.99;38.07;93976.63;5013409;28;20210;-68
2023/08/05 11:33:52;;;;;;;9.77;8.90;;;;;;;32.00;37.38;93966.81;5029799;28;20333;-68
2023/08/05 11:36:26;;;;;;;10.18;9.38;;;;;;;32.15;38.39;93960.81;5029869;28;20558;-68
2023/08/05 11:38:57;;;;;;;10.02;9.20;;;;;;;32.07;37.21;93954.88;5013535;28;20678;-68
2023/08/05 11:41:25;;;;;;;10.07;9.07;;;;;;;31.89;37.48;93961.91;5029613;28;20652;-68
2023/08/05 11:43:54;;;;;;;9.75;8.93;;;;;;;31.70;37.94;93961.63;5082057;28;20624;-68
2023/08/05 11:46:26;;;;;;;8.93;8.23;;;;;;;31.64;38.18;93950.22;5077943;28;20204;-68
2023/08/05 11:49:09;;;;;;;9.52;8.82;;;;;;;31.64;38.13;93957.97;5060197;28;20537;-67